ADDS METAR Data INFO
IDs: Format: Raw Decoded Include TAF

Data at: 1041 UTC 24 Jun 2018

KGGG 241007Z AUTO 17014G19KT 10SM SCT017 26/24 A2984 RMK AO2 T02610239
KGGG 240953Z AUTO 17010KT 10SM BKN017 26/24 A2984 RMK AO2 SLP097 T02610239
KGGG 240926Z AUTO 18012KT 10SM BKN017 26/24 A2985 RMK AO2 T02610244
KGGG 240853Z AUTO 18012G20KT 10SM FEW017 26/24 A2985 RMK AO2 SLP098 T02610239 58006
KGGG 240835Z AUTO 20012KT 10SM SCT020 27/24 A2986 RMK AO2 T02670239
KGGG 240753Z AUTO 20012KT 10SM OVC021 27/24 A2987 RMK AO2 SLP107 T02670239

KGGG 240752Z 2408/2506 18010KT P6SM BKN020 BKN250
  FM240900 18011KT P6SM BKN015 OVC020
  FM241500 18012KT P6SM BKN025
  FM241700 19014G20KT P6SM SCT040 SCT250
  FM250100 16013KT P6SM FEW250


KTYR 240953Z AUTO 17017G25KT 10SM FEW017 26/24 A2980 RMK AO2 SLP081 T02610239
KTYR 240853Z AUTO 17015G24KT 10SM CLR 26/24 A2982 RMK AO2 SLP089 T02610239 58016
KTYR 240816Z AUTO 18015G21KT 10SM SCT020 27/24 A2985 RMK AO2 T02670239
KTYR 240753Z AUTO 19015KT 10SM SCT021 BKN027 27/24 A2987 RMK AO2 SLP106 T02670239

KTYR 240540Z 2406/2506 17010KT P6SM SCT025 BKN250
  FM240900 18011KT P6SM BKN012
  FM241500 18012KT P6SM BKN025
  FM241700 18014G20KT P6SM SCT040 SCT250
  FM250100 16013KT P6SM FEW250